Aviation Digital Data Service (ADDS)

Output produced by TAFs form (2341 UTC 18 July 2018)
found at http://www.aviationweather.gov/adds/tafs/
 
RJCH 182312Z 15004KT 7000 -SHRA FEW002 SCT009 BKN015 19/18 Q1012 RMK 1ST002 4ST009 7ST015 A2990
TAF RJCH 182318Z 1900/2006 14010KT 9999 FEW008 BKN015 
     TEMPO 1900/1903 FEW003 BKN008 
     BECMG 1912/1915 24005KT 
     TEMPO 1912/1918 3000 BR FEW003 BKN006 
     TEMPO 1918/2000 1500 BR FEW001 BKN003 
     TEMPO 2000/2003 FEW003 BKN005